• Join FlightAware (Why Join?)
  • Login
  • US Flag 
08:33PM EST


 

Airport Tracker/Info


-or-


 

Live Flight TrackerFlight Track Log ✈ UAL4695 ✈ 22-Apr-2013 ✈ KEWR - KMHT

Flight Track Log - Related Links

Times and Time Zones

All times are in EDT time to prevent confusion due to time zone crossing. See the UAL4695 flight status page for this flight to view local times or setup timezone preferences in your user account.

Time Position Orientation Groundspeed Altitude Reporting Facility
EDT Latitude Longitude Course Direction KTS MPH feet Rate Location/Type
11:37PM 41.1100 -73.6930 40° Northeast  Level FlightAware Approximate
11:38PM 41.1891 -73.6247 48° Northeast  Level FlightAware Approximate
11:39PM 41.2596 -73.5404 37° Northeast  Level FlightAware Approximate
11:40PM 41.3358 -73.4642 37° Northeast  Level FlightAware Approximate
11:41PM 41.4054 -73.3779 37° Northeast  Level FlightAware Approximate
11:42PM 41.4756 -73.2955 21° North  Level FlightAware Approximate
11:43PM 41.5402 -73.2086 41° Northeast  Level FlightAware Approximate
11:44PM 41.6120 -73.1249 41° Northeast  Level FlightAware Approximate
11:45PM 41.6992 -73.1079 340° North  Level FlightAware Approximate
11:46PM 41.7929 -73.1275 354° North  Level FlightAware Approximate
11:47PM 41.8877 -73.1410 354° North  Level FlightAware Approximate
11:48PM 41.9824 -73.1546 354° North  Level FlightAware Approximate
11:49PM 42.0771 -73.1687 352° North  Level FlightAware Approximate
11:50PM 42.1713 -73.1875 352° North  Level FlightAware Approximate
11:51PM 42.2656 -73.2063 352° North  Level FlightAware Approximate
11:52PM 42.3598 -73.2251 352° North  Level FlightAware Approximate
11:53PM 42.4541 -73.2440 352° North  Level FlightAware Approximate
11:54PM 42.5483 -73.2630 352° North  Level FlightAware Approximate
11:55PM 42.5942 -73.1696 73° East  Level FlightAware Approximate
11:56PM 42.6227 -73.0461 73° East  Level FlightAware Approximate
11:57PM 42.6447 -72.9214 71° East  Level FlightAware Approximate
11:58PM 42.6749 -72.7985 72° East  Level FlightAware Approximate
11:59PM 42.7039 -72.6750 72° East  Level FlightAware Approximate
12:00AM 42.7328 -72.5515 72° East  Level FlightAware Approximate
12:01AM 42.7615 -72.4278 72° East  Level FlightAware Approximate
12:02AM 42.7833 -72.3026 90° East  Level FlightAware Approximate
12:03AM 42.7934 -72.1736 83° East  Level FlightAware Approximate
12:04AM 42.8051 -72.0447 83° East  Level FlightAware Approximate
12:05AM 42.8167 -71.9158 90° East  Level FlightAware Approximate
12:06AM 42.8188 -71.7862 78° East  Level FlightAware Approximate
12:07AM 42.8384 -71.6591 78° East  Level FlightAware Approximate
12:08AM 42.8500 -71.5308 90° East  Level FlightAware Approximate